sensor_id;sensor_type;location;lat;lon;timestamp;temperature;humidity
17831;DHT22;9040;51.332;12.406;2022-08-20T00:01:10;20.40;99.90
17831;DHT22;9040;51.332;12.406;2022-08-20T00:03:38;20.40;99.90
17831;DHT22;9040;51.332;12.406;2022-08-20T00:06:08;20.40;99.90
17831;DHT22;9040;51.332;12.406;2022-08-20T00:08:37;20.40;99.90
17831;DHT22;9040;51.332;12.406;2022-08-20T00:11:07;20.40;99.90
17831;DHT22;9040;51.332;12.406;2022-08-20T00:13:37;20.40;99.90
17831;DHT22;9040;51.332;12.406;2022-08-20T00:16:05;20.40;99.90
17831;DHT22;9040;51.332;12.406;2022-08-20T00:18:33;20.50;99.90
17831;DHT22;9040;51.332;12.406;2022-08-20T00:21:03;20.50;99.90
17831;DHT22;9040;51.332;12.406;2022-08-20T00:23:30;20.40;99.90
17831;DHT22;9040;51.332;12.406;2022-08-20T00:25:57;20.40;99.90
17831;DHT22;9040;51.332;12.406;2022-08-20T00:28:25;20.40;99.90
17831;DHT22;9040;51.332;12.406;2022-08-20T00:30:52;20.40;99.90
17831;DHT22;9040;51.332;12.406;2022-08-20T00:33:21;20.40;99.90
17831;DHT22;9040;51.332;12.406;2022-08-20T00:35:50;20.40;99.90
17831;DHT22;9040;51.332;12.406;2022-08-20T00:38:18;20.30;99.90
17831;DHT22;9040;51.332;12.406;2022-08-20T00:40:47;20.30;99.90
17831;DHT22;9040;51.332;12.406;2022-08-20T00:43:29;20.30;99.90
17831;DHT22;9040;51.332;12.406;2022-08-20T00:45:57;20.20;99.90
17831;DHT22;9040;51.332;12.406;2022-08-20T00:48:27;20.20;99.90
17831;DHT22;9040;51.332;12.406;2022-08-20T00:51:00;20.20;99.90
17831;DHT22;9040;51.332;12.406;2022-08-20T00:53:28;20.30;99.90
17831;DHT22;9040;51.332;12.406;2022-08-20T00:55:55;20.30;99.90
17831;DHT22;9040;51.332;12.406;2022-08-20T00:58:23;20.30;99.90
17831;DHT22;9040;51.332;12.406;2022-08-20T01:00:52;20.30;99.90
17831;DHT22;9040;51.332;12.406;2022-08-20T01:03:19;20.30;99.90
17831;DHT22;9040;51.332;12.406;2022-08-20T01:05:49;20.30;99.90
17831;DHT22;9040;51.332;12.406;2022-08-20T01:08:18;20.30;99.90
17831;DHT22;9040;51.332;12.406;2022-08-20T01:10:47;20.30;99.90
17831;DHT22;9040;51.332;12.406;2022-08-20T01:13:20;20.20;99.90
17831;DHT22;9040;51.332;12.406;2022-08-20T01:15:49;20.30;99.90
17831;DHT22;9040;51.332;12.406;2022-08-20T01:18:22;20.30;99.90
17831;DHT22;9040;51.332;12.406;2022-08-20T01:20:53;20.30;99.90
17831;DHT22;9040;51.332;12.406;2022-08-20T01:23:25;20.30;99.90
17831;DHT22;9040;51.332;12.406;2022-08-20T01:25:58;20.30;99.90
17831;DHT22;9040;51.332;12.406;2022-08-20T01:28:31;20.30;99.90
17831;DHT22;9040;51.332;12.406;2022-08-20T01:30:58;20.30;99.90
17831;DHT22;9040;51.332;12.406;2022-08-20T01:33:25;20.40;99.90
17831;DHT22;9040;51.332;12.406;2022-08-20T01:35:53;20.40;99.90
17831;DHT22;9040;51.332;12.406;2022-08-20T01:38:20;20.40;99.90
17831;DHT22;9040;51.332;12.406;2022-08-20T01:41:18;20.40;99.90
17831;DHT22;9040;51.332;12.406;2022-08-20T01:43:49;20.40;99.90
17831;DHT22;9040;51.332;12.406;2022-08-20T01:46:22;20.30;99.90
17831;DHT22;9040;51.332;12.406;2022-08-20T01:48:50;20.30;99.90
17831;DHT22;9040;51.332;12.406;2022-08-20T01:51:20;20.30;99.90
17831;DHT22;9040;51.332;12.406;2022-08-20T01:53:51;20.30;99.90
17831;DHT22;9040;51.332;12.406;2022-08-20T01:56:22;20.40;99.90
17831;DHT22;9040;51.332;12.406;2022-08-20T01:58:52;20.40;99.90
17831;DHT22;9040;51.332;12.406;2022-08-20T02:01:25;20.40;99.90
17831;DHT22;9040;51.332;12.406;2022-08-20T02:03:53;20.30;99.90
17831;DHT22;9040;51.332;12.406;2022-08-20T02:06:22;20.30;99.90
17831;DHT22;9040;51.332;12.406;2022-08-20T02:08:52;20.20;99.90
17831;DHT22;9040;51.332;12.406;2022-08-20T02:11:22;20.20;99.90
17831;DHT22;9040;51.332;12.406;2022-08-20T02:13:50;20.20;99.90
17831;DHT22;9040;51.332;12.406;2022-08-20T02:16:19;20.20;99.90
17831;DHT22;9040;51.332;12.406;2022-08-20T02:18:48;20.30;99.90
17831;DHT22;9040;51.332;12.406;2022-08-20T02:21:17;20.30;99.90
17831;DHT22;9040;51.332;12.406;2022-08-20T02:23:44;20.20;99.90
17831;DHT22;9040;51.332;12.406;2022-08-20T02:26:11;20.20;99.90
17831;DHT22;9040;51.332;12.406;2022-08-20T02:28:39;20.20;99.90
17831;DHT22;9040;51.332;12.406;2022-08-20T02:31:06;20.30;99.90
17831;DHT22;9040;51.332;12.406;2022-08-20T02:33:34;20.20;99.90
17831;DHT22;9040;51.332;12.406;2022-08-20T02:36:01;20.20;99.90
17831;DHT22;9040;51.332;12.406;2022-08-20T02:38:28;20.30;99.90
17831;DHT22;9040;51.332;12.406;2022-08-20T02:40:55;20.30;99.90
17831;DHT22;9040;51.332;12.406;2022-08-20T02:43:22;20.30;99.90
17831;DHT22;9040;51.332;12.406;2022-08-20T02:45:50;20.20;99.90
17831;DHT22;9040;51.332;12.406;2022-08-20T02:48:19;20.20;99.90
17831;DHT22;9040;51.332;12.406;2022-08-20T02:50:49;20.20;99.90
17831;DHT22;9040;51.332;12.406;2022-08-20T02:53:17;20.20;99.90
17831;DHT22;9040;51.332;12.406;2022-08-20T02:55:44;20.20;99.90
17831;DHT22;9040;51.332;12.406;2022-08-20T02:58:11;20.20;99.90
17831;DHT22;9040;51.332;12.406;2022-08-20T03:00:38;20.10;99.90
17831;DHT22;9040;51.332;12.406;2022-08-20T03:03:07;20.10;99.90
17831;DHT22;9040;51.332;12.406;2022-08-20T03:05:35;20.10;99.90
17831;DHT22;9040;51.332;12.406;2022-08-20T03:08:04;20.10;99.90
17831;DHT22;9040;51.332;12.406;2022-08-20T03:10:34;20.00;99.90
17831;DHT22;9040;51.332;12.406;2022-08-20T03:13:01;20.10;99.90
17831;DHT22;9040;51.332;12.406;2022-08-20T03:15:29;20.00;99.90
17831;DHT22;9040;51.332;12.406;2022-08-20T03:17:56;20.00;99.90
17831;DHT22;9040;51.332;12.406;2022-08-20T03:20:26;20.00;99.90
17831;DHT22;9040;51.332;12.406;2022-08-20T03:22:53;20.10;99.90
17831;DHT22;9040;51.332;12.406;2022-08-20T03:25:20;20.00;99.90
17831;DHT22;9040;51.332;12.406;2022-08-20T03:27:48;20.00;99.90
17831;DHT22;9040;51.332;12.406;2022-08-20T03:30:16;20.00;99.90
17831;DHT22;9040;51.332;12.406;2022-08-20T03:32:44;20.00;99.90
17831;DHT22;9040;51.332;12.406;2022-08-20T03:35:13;20.00;99.90
17831;DHT22;9040;51.332;12.406;2022-08-20T03:37:43;19.90;99.90
17831;DHT22;9040;51.332;12.406;2022-08-20T03:40:22;19.90;99.90
17831;DHT22;9040;51.332;12.406;2022-08-20T03:42:50;19.90;99.90
17831;DHT22;9040;51.332;12.406;2022-08-20T03:45:19;19.90;99.90
17831;DHT22;9040;51.332;12.406;2022-08-20T03:47:47;19.90;99.90
17831;DHT22;9040;51.332;12.406;2022-08-20T03:50:17;19.90;99.90
17831;DHT22;9040;51.332;12.406;2022-08-20T03:52:45;19.90;99.90
17831;DHT22;9040;51.332;12.406;2022-08-20T03:55:12;19.90;99.90
17831;DHT22;9040;51.332;12.406;2022-08-20T03:57:44;19.90;99.90
17831;DHT22;9040;51.332;12.406;2022-08-20T04:00:13;19.90;99.90
17831;DHT22;9040;51.332;12.406;2022-08-20T04:02:41;19.90;99.90
17831;DHT22;9040;51.332;12.406;2022-08-20T04:05:08;19.90;99.90
17831;DHT22;9040;51.332;12.406;2022-08-20T04:07:35;19.90;99.90
17831;DHT22;9040;51.332;12.406;2022-08-20T04:10:06;19.90;99.90
17831;DHT22;9040;51.332;12.406;2022-08-20T04:12:33;19.80;99.90
17831;DHT22;9040;51.332;12.406;2022-08-20T04:15:02;19.80;99.90
17831;DHT22;9040;51.332;12.406;2022-08-20T04:17:29;19.80;99.90
17831;DHT22;9040;51.332;12.406;2022-08-20T04:19:57;19.90;99.90
17831;DHT22;9040;51.332;12.406;2022-08-20T04:22:24;19.80;99.90
17831;DHT22;9040;51.332;12.406;2022-08-20T04:24:51;19.80;99.90
17831;DHT22;9040;51.332;12.406;2022-08-20T04:27:19;19.80;99.90
17831;DHT22;9040;51.332;12.406;2022-08-20T04:29:46;19.80;99.90
17831;DHT22;9040;51.332;12.406;2022-08-20T04:32:13;19.80;99.90
17831;DHT22;9040;51.332;12.406;2022-08-20T04:34:40;19.80;99.90
17831;DHT22;9040;51.332;12.406;2022-08-20T04:37:09;19.80;99.90
17831;DHT22;9040;51.332;12.406;2022-08-20T04:39:36;19.80;99.90
17831;DHT22;9040;51.332;12.406;2022-08-20T04:42:03;19.80;99.90
17831;DHT22;9040;51.332;12.406;2022-08-20T04:44:31;19.80;99.90
17831;DHT22;9040;51.332;12.406;2022-08-20T04:46:58;19.90;99.90
17831;DHT22;9040;51.332;12.406;2022-08-20T04:49:26;19.80;99.90
17831;DHT22;9040;51.332;12.406;2022-08-20T04:51:53;19.80;99.90
17831;DHT22;9040;51.332;12.406;2022-08-20T04:54:20;19.80;99.90
17831;DHT22;9040;51.332;12.406;2022-08-20T04:56:47;19.80;99.90
17831;DHT22;9040;51.332;12.406;2022-08-20T04:59:14;19.80;99.90
17831;DHT22;9040;51.332;12.406;2022-08-20T05:01:42;19.80;99.90
17831;DHT22;9040;51.332;12.406;2022-08-20T05:04:10;19.80;99.90
17831;DHT22;9040;51.332;12.406;2022-08-20T05:06:36;19.80;99.90
17831;DHT22;9040;51.332;12.406;2022-08-20T05:09:05;19.80;99.90
17831;DHT22;9040;51.332;12.406;2022-08-20T05:11:32;19.80;99.90
17831;DHT22;9040;51.332;12.406;2022-08-20T05:13:59;19.80;99.90
17831;DHT22;9040;51.332;12.406;2022-08-20T05:16:26;19.80;99.90
17831;DHT22;9040;51.332;12.406;2022-08-20T05:18:54;19.90;99.90
17831;DHT22;9040;51.332;12.406;2022-08-20T05:21:21;19.90;99.90
17831;DHT22;9040;51.332;12.406;2022-08-20T05:23:48;19.90;99.90
17831;DHT22;9040;51.332;12.406;2022-08-20T05:26:15;19.90;99.90
17831;DHT22;9040;51.332;12.406;2022-08-20T05:28:44;19.90;99.90
17831;DHT22;9040;51.332;12.406;2022-08-20T05:31:11;19.90;99.90
17831;DHT22;9040;51.332;12.406;2022-08-20T05:33:39;19.90;99.90
17831;DHT22;9040;51.332;12.406;2022-08-20T05:36:08;20.00;99.90
17831;DHT22;9040;51.332;12.406;2022-08-20T05:38:36;19.90;99.90
17831;DHT22;9040;51.332;12.406;2022-08-20T05:41:03;20.00;99.90
17831;DHT22;9040;51.332;12.406;2022-08-20T05:43:30;19.90;99.90
17831;DHT22;9040;51.332;12.406;2022-08-20T05:45:58;20.00;99.90
17831;DHT22;9040;51.332;12.406;2022-08-20T05:48:27;20.00;99.90
17831;DHT22;9040;51.332;12.406;2022-08-20T05:50:55;20.00;99.90
17831;DHT22;9040;51.332;12.406;2022-08-20T05:53:24;20.00;99.90
17831;DHT22;9040;51.332;12.406;2022-08-20T05:55:51;20.00;99.90
17831;DHT22;9040;51.332;12.406;2022-08-20T05:58:20;20.10;99.90
17831;DHT22;9040;51.332;12.406;2022-08-20T06:00:48;20.10;99.90
17831;DHT22;9040;51.332;12.406;2022-08-20T06:03:15;20.10;99.90
17831;DHT22;9040;51.332;12.406;2022-08-20T06:05:59;20.10;99.90
17831;DHT22;9040;51.332;12.406;2022-08-20T06:08:29;20.10;99.90
17831;DHT22;9040;51.332;12.406;2022-08-20T06:10:56;20.10;99.90
17831;DHT22;9040;51.332;12.406;2022-08-20T06:13:23;20.00;99.90
17831;DHT22;9040;51.332;12.406;2022-08-20T06:15:50;20.00;99.90
17831;DHT22;9040;51.332;12.406;2022-08-20T06:18:18;20.00;99.90
17831;DHT22;9040;51.332;12.406;2022-08-20T06:20:45;19.90;99.90
17831;DHT22;9040;51.332;12.406;2022-08-20T06:23:12;19.90;99.90
17831;DHT22;9040;51.332;12.406;2022-08-20T06:25:41;19.90;99.90
17831;DHT22;9040;51.332;12.406;2022-08-20T06:28:08;19.80;99.90
17831;DHT22;9040;51.332;12.406;2022-08-20T06:30:35;19.80;99.90
17831;DHT22;9040;51.332;12.406;2022-08-20T06:33:03;19.80;99.90
17831;DHT22;9040;51.332;12.406;2022-08-20T06:35:32;19.80;99.90
17831;DHT22;9040;51.332;12.406;2022-08-20T06:38:03;19.80;99.90
17831;DHT22;9040;51.332;12.406;2022-08-20T06:40:30;19.80;99.90
17831;DHT22;9040;51.332;12.406;2022-08-20T06:43:00;19.90;99.90
17831;DHT22;9040;51.332;12.406;2022-08-20T06:45:29;19.80;99.90
17831;DHT22;9040;51.332;12.406;2022-08-20T06:48:00;19.80;99.90
17831;DHT22;9040;51.332;12.406;2022-08-20T06:50:30;19.90;99.90
17831;DHT22;9040;51.332;12.406;2022-08-20T06:52:57;20.00;99.90
17831;DHT22;9040;51.332;12.406;2022-08-20T06:55:25;20.10;99.90
17831;DHT22;9040;51.332;12.406;2022-08-20T06:57:56;20.10;99.90
17831;DHT22;9040;51.332;12.406;2022-08-20T07:00:27;20.20;99.90
17831;DHT22;9040;51.332;12.406;2022-08-20T07:02:54;20.20;99.90
17831;DHT22;9040;51.332;12.406;2022-08-20T07:05:22;20.20;99.90
17831;DHT22;9040;51.332;12.406;2022-08-20T07:07:49;20.20;99.90
17831;DHT22;9040;51.332;12.406;2022-08-20T07:10:17;20.20;99.90
17831;DHT22;9040;51.332;12.406;2022-08-20T07:12:47;20.30;99.90
17831;DHT22;9040;51.332;12.406;2022-08-20T07:15:16;20.20;99.90
17831;DHT22;9040;51.332;12.406;2022-08-20T07:17:52;20.30;99.90
17831;DHT22;9040;51.332;12.406;2022-08-20T07:20:20;20.20;99.90
17831;DHT22;9040;51.332;12.406;2022-08-20T07:22:47;20.30;99.90
17831;DHT22;9040;51.332;12.406;2022-08-20T07:25:16;20.40;99.90
17831;DHT22;9040;51.332;12.406;2022-08-20T07:27:45;20.40;99.90
17831;DHT22;9040;51.332;12.406;2022-08-20T07:30:16;20.40;99.90
17831;DHT22;9040;51.332;12.406;2022-08-20T07:33:02;20.40;99.90
17831;DHT22;9040;51.332;12.406;2022-08-20T07:35:30;20.30;99.90
17831;DHT22;9040;51.332;12.406;2022-08-20T07:37:57;20.30;99.90
17831;DHT22;9040;51.332;12.406;2022-08-20T07:40:27;20.30;99.90
17831;DHT22;9040;51.332;12.406;2022-08-20T07:42:54;20.20;99.90
17831;DHT22;9040;51.332;12.406;2022-08-20T07:45:22;20.20;99.90
17831;DHT22;9040;51.332;12.406;2022-08-20T07:47:49;20.20;99.90
17831;DHT22;9040;51.332;12.406;2022-08-20T07:50:22;20.20;99.90
17831;DHT22;9040;51.332;12.406;2022-08-20T07:52:49;20.10;99.90
17831;DHT22;9040;51.332;12.406;2022-08-20T07:55:17;20.10;99.90
17831;DHT22;9040;51.332;12.406;2022-08-20T07:57:47;20.10;99.90
17831;DHT22;9040;51.332;12.406;2022-08-20T08:00:16;20.20;99.90
17831;DHT22;9040;51.332;12.406;2022-08-20T08:02:44;20.20;99.90
17831;DHT22;9040;51.332;12.406;2022-08-20T08:05:11;20.20;99.90
17831;DHT22;9040;51.332;12.406;2022-08-20T08:07:39;20.20;99.90
17831;DHT22;9040;51.332;12.406;2022-08-20T08:10:08;20.20;99.90
17831;DHT22;9040;51.332;12.406;2022-08-20T08:12:40;20.20;99.90
17831;DHT22;9040;51.332;12.406;2022-08-20T08:15:11;20.20;99.90
17831;DHT22;9040;51.332;12.406;2022-08-20T08:17:40;20.20;99.90
17831;DHT22;9040;51.332;12.406;2022-08-20T08:20:09;20.30;99.90
17831;DHT22;9040;51.332;12.406;2022-08-20T08:22:39;20.20;99.90
17831;DHT22;9040;51.332;12.406;2022-08-20T08:25:08;20.30;99.90
17831;DHT22;9040;51.332;12.406;2022-08-20T08:27:35;20.20;99.90
17831;DHT22;9040;51.332;12.406;2022-08-20T08:30:03;20.30;99.90
17831;DHT22;9040;51.332;12.406;2022-08-20T08:32:30;20.30;99.90
17831;DHT22;9040;51.332;12.406;2022-08-20T08:34:57;20.30;99.90
17831;DHT22;9040;51.332;12.406;2022-08-20T08:37:28;20.30;99.90
17831;DHT22;9040;51.332;12.406;2022-08-20T08:39:56;20.40;99.90
17831;DHT22;9040;51.332;12.406;2022-08-20T08:42:32;20.40;99.90
17831;DHT22;9040;51.332;12.406;2022-08-20T08:44:59;20.40;99.90
17831;DHT22;9040;51.332;12.406;2022-08-20T08:47:32;20.40;99.90
17831;DHT22;9040;51.332;12.406;2022-08-20T08:50:05;20.40;99.90
17831;DHT22;9040;51.332;12.406;2022-08-20T08:52:35;20.40;99.90
17831;DHT22;9040;51.332;12.406;2022-08-20T08:55:10;20.50;99.90
17831;DHT22;9040;51.332;12.406;2022-08-20T08:57:40;20.50;99.90
17831;DHT22;9040;51.332;12.406;2022-08-20T09:00:10;20.50;99.90
17831;DHT22;9040;51.332;12.406;2022-08-20T09:02:39;20.40;99.90
17831;DHT22;9040;51.332;12.406;2022-08-20T09:05:13;20.40;99.90
17831;DHT22;9040;51.332;12.406;2022-08-20T09:07:43;20.50;99.90
17831;DHT22;9040;51.332;12.406;2022-08-20T09:10:14;20.50;99.90
17831;DHT22;9040;51.332;12.406;2022-08-20T09:12:41;20.60;99.90
17831;DHT22;9040;51.332;12.406;2022-08-20T09:15:09;20.60;99.90
17831;DHT22;9040;51.332;12.406;2022-08-20T09:17:36;20.60;99.90
17831;DHT22;9040;51.332;12.406;2022-08-20T09:20:04;20.60;99.90
17831;DHT22;9040;51.332;12.406;2022-08-20T09:22:32;20.50;99.90
17831;DHT22;9040;51.332;12.406;2022-08-20T09:24:59;20.60;99.90
17831;DHT22;9040;51.332;12.406;2022-08-20T09:27:29;20.60;99.90
17831;DHT22;9040;51.332;12.406;2022-08-20T09:29:56;20.70;99.90
17831;DHT22;9040;51.332;12.406;2022-08-20T09:32:23;20.80;99.90
17831;DHT22;9040;51.332;12.406;2022-08-20T09:34:53;20.80;99.90
17831;DHT22;9040;51.332;12.406;2022-08-20T09:37:22;20.90;99.90
17831;DHT22;9040;51.332;12.406;2022-08-20T09:39:49;20.90;99.90
17831;DHT22;9040;51.332;12.406;2022-08-20T09:42:18;20.80;99.90
17831;DHT22;9040;51.332;12.406;2022-08-20T09:44:47;20.90;99.90
17831;DHT22;9040;51.332;12.406;2022-08-20T09:47:14;20.90;99.90
17831;DHT22;9040;51.332;12.406;2022-08-20T09:49:42;20.90;99.90
17831;DHT22;9040;51.332;12.406;2022-08-20T09:52:17;20.90;99.90
17831;DHT22;9040;51.332;12.406;2022-08-20T09:54:45;20.90;99.90
17831;DHT22;9040;51.332;12.406;2022-08-20T09:57:14;20.90;99.90
17831;DHT22;9040;51.332;12.406;2022-08-20T09:59:41;20.90;99.90
17831;DHT22;9040;51.332;12.406;2022-08-20T10:02:10;20.90;99.90
17831;DHT22;9040;51.332;12.406;2022-08-20T10:04:36;20.90;99.90
17831;DHT22;9040;51.332;12.406;2022-08-20T10:07:06;20.90;99.90
17831;DHT22;9040;51.332;12.406;2022-08-20T10:09:33;20.90;99.90
17831;DHT22;9040;51.332;12.406;2022-08-20T10:12:01;21.00;99.90
17831;DHT22;9040;51.332;12.406;2022-08-20T10:14:27;21.10;99.90
17831;DHT22;9040;51.332;12.406;2022-08-20T10:16:55;21.20;99.90
17831;DHT22;9040;51.332;12.406;2022-08-20T10:19:23;21.10;99.90
17831;DHT22;9040;51.332;12.406;2022-08-20T10:21:51;21.20;99.90
17831;DHT22;9040;51.332;12.406;2022-08-20T10:24:19;21.20;99.90
17831;DHT22;9040;51.332;12.406;2022-08-20T10:26:46;21.10;99.90
17831;DHT22;9040;51.332;12.406;2022-08-20T10:29:14;21.10;99.90
17831;DHT22;9040;51.332;12.406;2022-08-20T10:31:41;21.10;99.90
17831;DHT22;9040;51.332;12.406;2022-08-20T10:34:08;21.10;99.90
17831;DHT22;9040;51.332;12.406;2022-08-20T10:36:37;21.10;99.90
17831;DHT22;9040;51.332;12.406;2022-08-20T10:39:03;21.10;99.90
17831;DHT22;9040;51.332;12.406;2022-08-20T10:41:30;21.10;99.90
17831;DHT22;9040;51.332;12.406;2022-08-20T10:43:57;21.10;99.90
17831;DHT22;9040;51.332;12.406;2022-08-20T10:46:24;21.00;99.90
17831;DHT22;9040;51.332;12.406;2022-08-20T10:48:51;21.00;99.90
17831;DHT22;9040;51.332;12.406;2022-08-20T10:51:18;21.00;99.90
17831;DHT22;9040;51.332;12.406;2022-08-20T10:53:46;21.00;99.90
17831;DHT22;9040;51.332;12.406;2022-08-20T10:56:13;21.00;99.90
17831;DHT22;9040;51.332;12.406;2022-08-20T10:58:40;21.00;99.90
17831;DHT22;9040;51.332;12.406;2022-08-20T11:01:07;21.10;99.90
17831;DHT22;9040;51.332;12.406;2022-08-20T11:03:34;21.20;99.90
17831;DHT22;9040;51.332;12.406;2022-08-20T11:06:02;21.20;99.90
17831;DHT22;9040;51.332;12.406;2022-08-20T11:08:29;21.30;99.90
17831;DHT22;9040;51.332;12.406;2022-08-20T11:10:57;21.30;99.90
17831;DHT22;9040;51.332;12.406;2022-08-20T11:13:24;21.40;99.90
17831;DHT22;9040;51.332;12.406;2022-08-20T11:15:51;21.40;99.90
17831;DHT22;9040;51.332;12.406;2022-08-20T11:18:18;21.40;99.90
17831;DHT22;9040;51.332;12.406;2022-08-20T11:20:45;21.50;99.90
17831;DHT22;9040;51.332;12.406;2022-08-20T11:23:12;21.40;99.90
17831;DHT22;9040;51.332;12.406;2022-08-20T11:25:39;21.40;99.90
17831;DHT22;9040;51.332;12.406;2022-08-20T11:28:07;21.40;99.90
17831;DHT22;9040;51.332;12.406;2022-08-20T11:30:35;21.40;99.90
17831;DHT22;9040;51.332;12.406;2022-08-20T11:33:03;21.50;99.90
17831;DHT22;9040;51.332;12.406;2022-08-20T11:35:33;21.50;99.90
17831;DHT22;9040;51.332;12.406;2022-08-20T11:38:01;21.60;99.90
17831;DHT22;9040;51.332;12.406;2022-08-20T11:40:28;21.50;99.90
17831;DHT22;9040;51.332;12.406;2022-08-20T11:42:56;21.50;99.90
17831;DHT22;9040;51.332;12.406;2022-08-20T11:45:24;21.60;99.90
17831;DHT22;9040;51.332;12.406;2022-08-20T11:47:51;21.50;99.90
17831;DHT22;9040;51.332;12.406;2022-08-20T11:50:19;21.60;99.90
17831;DHT22;9040;51.332;12.406;2022-08-20T11:52:47;21.60;99.90
17831;DHT22;9040;51.332;12.406;2022-08-20T11:55:15;21.70;99.90
17831;DHT22;9040;51.332;12.406;2022-08-20T11:57:45;21.70;99.90
17831;DHT22;9040;51.332;12.406;2022-08-20T12:00:15;21.80;99.90
17831;DHT22;9040;51.332;12.406;2022-08-20T12:02:44;21.80;99.90
17831;DHT22;9040;51.332;12.406;2022-08-20T12:05:11;21.80;99.90
17831;DHT22;9040;51.332;12.406;2022-08-20T12:07:39;21.80;99.90
17831;DHT22;9040;51.332;12.406;2022-08-20T12:10:08;21.80;99.90
17831;DHT22;9040;51.332;12.406;2022-08-20T12:12:36;21.80;99.90
17831;DHT22;9040;51.332;12.406;2022-08-20T12:15:05;21.80;99.90
17831;DHT22;9040;51.332;12.406;2022-08-20T12:17:32;21.80;99.90
17831;DHT22;9040;51.332;12.406;2022-08-20T12:20:05;21.90;99.90
17831;DHT22;9040;51.332;12.406;2022-08-20T12:22:32;21.90;99.90
17831;DHT22;9040;51.332;12.406;2022-08-20T12:24:59;21.80;99.90
17831;DHT22;9040;51.332;12.406;2022-08-20T12:27:28;21.80;99.90
17831;DHT22;9040;51.332;12.406;2022-08-20T12:29:57;21.80;99.90
17831;DHT22;9040;51.332;12.406;2022-08-20T12:32:26;21.80;99.90
17831;DHT22;9040;51.332;12.406;2022-08-20T12:34:54;21.90;99.90
17831;DHT22;9040;51.332;12.406;2022-08-20T12:37:24;21.90;99.90
17831;DHT22;9040;51.332;12.406;2022-08-20T12:39:53;22.00;99.90
17831;DHT22;9040;51.332;12.406;2022-08-20T12:42:21;22.10;99.90
17831;DHT22;9040;51.332;12.406;2022-08-20T12:44:48;22.20;99.90
17831;DHT22;9040;51.332;12.406;2022-08-20T12:47:17;22.20;99.90
17831;DHT22;9040;51.332;12.406;2022-08-20T12:49:47;22.20;99.90
17831;DHT22;9040;51.332;12.406;2022-08-20T12:52:16;22.30;99.90
17831;DHT22;9040;51.332;12.406;2022-08-20T12:54:45;22.30;99.90
17831;DHT22;9040;51.332;12.406;2022-08-20T12:57:13;22.30;99.90
17831;DHT22;9040;51.332;12.406;2022-08-20T12:59:41;22.40;99.90
17831;DHT22;9040;51.332;12.406;2022-08-20T13:02:08;22.50;99.90
17831;DHT22;9040;51.332;12.406;2022-08-20T13:04:34;22.60;99.90
17831;DHT22;9040;51.332;12.406;2022-08-20T13:07:02;22.70;99.90
17831;DHT22;9040;51.332;12.406;2022-08-20T13:09:29;22.90;99.90
17831;DHT22;9040;51.332;12.406;2022-08-20T13:11:58;23.10;99.90
17831;DHT22;9040;51.332;12.406;2022-08-20T13:14:25;23.10;99.90
17831;DHT22;9040;51.332;12.406;2022-08-20T13:16:56;23.10;99.90
17831;DHT22;9040;51.332;12.406;2022-08-20T13:19:23;23.10;99.90
17831;DHT22;9040;51.332;12.406;2022-08-20T13:21:52;23.10;99.90
17831;DHT22;9040;51.332;12.406;2022-08-20T13:24:19;23.00;99.90
17831;DHT22;9040;51.332;12.406;2022-08-20T13:26:46;23.00;99.90
17831;DHT22;9040;51.332;12.406;2022-08-20T13:29:16;22.90;99.90
17831;DHT22;9040;51.332;12.406;2022-08-20T13:31:43;23.00;99.90
17831;DHT22;9040;51.332;12.406;2022-08-20T13:34:10;23.00;99.90
17831;DHT22;9040;51.332;12.406;2022-08-20T13:36:38;23.10;99.90
17831;DHT22;9040;51.332;12.406;2022-08-20T13:39:06;23.10;99.90
17831;DHT22;9040;51.332;12.406;2022-08-20T13:41:33;23.00;99.90
17831;DHT22;9040;51.332;12.406;2022-08-20T13:44:00;22.90;99.90
17831;DHT22;9040;51.332;12.406;2022-08-20T13:46:28;22.90;99.90
17831;DHT22;9040;51.332;12.406;2022-08-20T13:48:55;22.80;99.90
17831;DHT22;9040;51.332;12.406;2022-08-20T13:51:22;22.80;99.90
17831;DHT22;9040;51.332;12.406;2022-08-20T13:53:49;22.90;99.90
17831;DHT22;9040;51.332;12.406;2022-08-20T13:56:16;22.80;99.90
17831;DHT22;9040;51.332;12.406;2022-08-20T13:58:43;22.80;99.90
17831;DHT22;9040;51.332;12.406;2022-08-20T14:01:10;22.80;99.90
17831;DHT22;9040;51.332;12.406;2022-08-20T14:03:38;22.80;99.90
17831;DHT22;9040;51.332;12.406;2022-08-20T14:06:06;22.70;99.90
17831;DHT22;9040;51.332;12.406;2022-08-20T14:08:34;22.70;99.90
17831;DHT22;9040;51.332;12.406;2022-08-20T14:11:01;22.60;99.90
17831;DHT22;9040;51.332;12.406;2022-08-20T14:13:28;22.50;99.90
17831;DHT22;9040;51.332;12.406;2022-08-20T14:15:55;22.50;99.90
17831;DHT22;9040;51.332;12.406;2022-08-20T14:18:22;22.50;99.90
17831;DHT22;9040;51.332;12.406;2022-08-20T14:20:50;22.50;99.90
17831;DHT22;9040;51.332;12.406;2022-08-20T14:23:17;22.50;99.90
17831;DHT22;9040;51.332;12.406;2022-08-20T14:25:45;22.50;99.90
17831;DHT22;9040;51.332;12.406;2022-08-20T14:28:16;22.50;99.90
17831;DHT22;9040;51.332;12.406;2022-08-20T14:30:43;22.60;99.90
17831;DHT22;9040;51.332;12.406;2022-08-20T14:33:10;22.60;99.90
17831;DHT22;9040;51.332;12.406;2022-08-20T14:35:37;22.60;99.90
17831;DHT22;9040;51.332;12.406;2022-08-20T14:38:06;22.60;99.90
17831;DHT22;9040;51.332;12.406;2022-08-20T14:40:33;22.60;99.90
17831;DHT22;9040;51.332;12.406;2022-08-20T14:43:00;22.60;99.90
17831;DHT22;9040;51.332;12.406;2022-08-20T14:45:28;22.60;99.90
17831;DHT22;9040;51.332;12.406;2022-08-20T14:47:56;22.60;99.90
17831;DHT22;9040;51.332;12.406;2022-08-20T14:50:25;22.60;99.90
17831;DHT22;9040;51.332;12.406;2022-08-20T14:52:53;22.60;99.90
17831;DHT22;9040;51.332;12.406;2022-08-20T14:55:24;22.60;99.90
17831;DHT22;9040;51.332;12.406;2022-08-20T14:57:51;22.60;99.90
17831;DHT22;9040;51.332;12.406;2022-08-20T15:00:20;22.60;99.90
17831;DHT22;9040;51.332;12.406;2022-08-20T15:02:47;22.60;99.90
17831;DHT22;9040;51.332;12.406;2022-08-20T15:05:14;22.60;99.90
17831;DHT22;9040;51.332;12.406;2022-08-20T15:07:44;22.50;99.90
17831;DHT22;9040;51.332;12.406;2022-08-20T15:10:13;22.50;99.90
17831;DHT22;9040;51.332;12.406;2022-08-20T15:12:41;22.50;99.90
17831;DHT22;9040;51.332;12.406;2022-08-20T15:15:10;22.50;99.90
17831;DHT22;9040;51.332;12.406;2022-08-20T15:17:37;22.50;99.90
17831;DHT22;9040;51.332;12.406;2022-08-20T15:20:09;22.40;99.90
17831;DHT22;9040;51.332;12.406;2022-08-20T15:22:37;22.40;99.90
17831;DHT22;9040;51.332;12.406;2022-08-20T15:25:04;22.40;99.90
17831;DHT22;9040;51.332;12.406;2022-08-20T15:27:31;22.40;99.90
17831;DHT22;9040;51.332;12.406;2022-08-20T15:30:04;22.30;99.90
17831;DHT22;9040;51.332;12.406;2022-08-20T15:32:31;22.30;99.90
17831;DHT22;9040;51.332;12.406;2022-08-20T15:34:58;22.30;99.90
17831;DHT22;9040;51.332;12.406;2022-08-20T15:37:25;22.30;99.90